Airports

 

 

Airport Name Latest METAR Visual Conditions
Augusta Regional Airport (AGS) KAGS 050253Z 35004KT 10SM CLR 12/09 A3016 RMK AO2 SLP211 T01170094 53001 VFR
Hartsfield-Jackson Atlanta International Airport (ATL) KATL 050252Z 30004KT 10SM FEW080 OVC100 12/06 A3013 RMK AO2 SLP202 RAE04 P0000 60000 T01170061 55013 $ VFR
Asheville Regional Airport (AVL) KAVL 050254Z 00000KT 10SM BKN022 05/01 A3015 RMK AO2 SLP212 T00500006 58005 $ MVFR
Birmingham-Shuttlesworth International Airport (BHM) KBHM 050253Z 00000KT 10SM BKN070 OVC090 11/08 A3018 RMK AO2 RAB20E29 SLP217 P0000 60000 T01110078 50015 VFR
Chattanooga Metropolitan Airport (CHA) KCHA 050253Z 01006KT 10SM SCT065 OVC085 08/04 A3018 RMK AO2 SLP219 T00830039 53001 $ VFR
Charlotte Douglas International Airport (CLT) KCLT 050252Z 05003KT 10SM FEW110 FEW180 BKN250 07/M01 A3018 RMK SLP221 T00721011 55004 VFR
Greenville-Spartanburg International Airport (GSP) KGSP 050253Z 01003KT 10SM CLR 07/03 A3018 RMK AO2 SLP219 T00720028 51003 $ VFR
Montgomery Regional Airport (MGM) KMGM 050253Z 33005KT 10SM OVC022 16/14 A3015 RMK AO2 SLP208 T01560139 53002 MVFR
DeKalb-Peachtree Airport (PDK) KPDK 050253Z 00000KT 10SM OVC100 11/04 A3012 RMK AO2 SLP203 T01060039 56015 VFR
Tri-Cities Regional Airport (TRI) KTRI 050253Z 00000KT 10SM CLR 00/M03 A3016 RMK AO2 SLP214 T00001028 56006 VFR
McGhee Tyson Airport (TYS) KTYS 050253Z 00000KT 10SM CLR 03/01 A3016 RMK AO2 SLP218 T00280011 55003 $ VFR